sensor_id;sensor_type;location;lat;lon;timestamp;pressure;altitude;pressure_sealevel;temperature;humidity
30935;BME280;51033;42.648;23.292;2022-07-29T00:01:29;94023.06;;;19.67;56.71
30935;BME280;51033;42.648;23.292;2022-07-29T00:03:55;94030.06;;;19.71;57.10
30935;BME280;51033;42.648;23.292;2022-07-29T00:06:20;94047.47;;;19.74;57.66
30935;BME280;51033;42.648;23.292;2022-07-29T00:08:46;94064.31;;;19.67;57.32
30935;BME280;51033;42.648;23.292;2022-07-29T00:11:11;94049.34;;;19.21;58.61
30935;BME280;51033;42.648;23.292;2022-07-29T00:13:37;94074.97;;;19.34;58.84
30935;BME280;51033;42.648;23.292;2022-07-29T00:16:03;94072.28;;;19.34;59.19
30935;BME280;51033;42.648;23.292;2022-07-29T00:18:28;94063.19;;;19.19;59.46
30935;BME280;51033;42.648;23.292;2022-07-29T00:20:54;94054.84;;;19.28;59.22
30935;BME280;51033;42.648;23.292;2022-07-29T00:23:19;94056.97;;;19.64;58.39
30935;BME280;51033;42.648;23.292;2022-07-29T00:25:45;93987.59;;;19.39;57.77
30935;BME280;51033;42.648;23.292;2022-07-29T00:28:10;94038.78;;;19.88;57.57
30935;BME280;51033;42.648;23.292;2022-07-29T00:30:36;94055.25;;;20.09;57.07
30935;BME280;51033;42.648;23.292;2022-07-29T00:33:01;94055.44;;;20.23;56.86
30935;BME280;51033;42.648;23.292;2022-07-29T00:35:27;94068.63;;;20.28;56.69
30935;BME280;51033;42.648;23.292;2022-07-29T00:38:16;94052.31;;;20.21;56.30
30935;BME280;51033;42.648;23.292;2022-07-29T00:40:41;94047.03;;;20.28;56.08
30935;BME280;51033;42.648;23.292;2022-07-29T00:43:07;94046.28;;;20.31;55.79
30935;BME280;51033;42.648;23.292;2022-07-29T00:45:33;94047.97;;;20.43;55.53
30935;BME280;51033;42.648;23.292;2022-07-29T00:47:58;94065.38;;;20.49;55.40
30935;BME280;51033;42.648;23.292;2022-07-29T00:50:24;94054.41;;;20.35;55.50
30935;BME280;51033;42.648;23.292;2022-07-29T00:52:50;94024.34;;;20.06;55.83
30935;BME280;51033;42.648;23.292;2022-07-29T00:55:16;94065.28;;;20.38;55.93
30935;BME280;51033;42.648;23.292;2022-07-29T00:57:44;94070.38;;;20.47;55.97
30935;BME280;51033;42.648;23.292;2022-07-29T01:00:13;94035.03;;;20.26;55.52
30935;BME280;51033;42.648;23.292;2022-07-29T01:02:38;94063.78;;;20.44;55.73
30935;BME280;51033;42.648;23.292;2022-07-29T01:05:05;94062.25;;;20.43;55.48
30935;BME280;51033;42.648;23.292;2022-07-29T01:07:32;94044.00;;;20.33;55.49
30935;BME280;51033;42.648;23.292;2022-07-29T01:09:59;94041.69;;;20.35;55.61
30935;BME280;51033;42.648;23.292;2022-07-29T01:12:27;94046.28;;;20.31;55.55
30935;BME280;51033;42.648;23.292;2022-07-29T01:14:54;94039.31;;;20.30;55.53
30935;BME280;51033;42.648;23.292;2022-07-29T01:30:47;94018.66;;;20.15;56.56
30935;BME280;51033;42.648;23.292;2022-07-29T01:33:17;94022.66;;;20.25;56.46
30935;BME280;51033;42.648;23.292;2022-07-29T01:36:07;94020.56;;;20.14;56.49
30935;BME280;51033;42.648;23.292;2022-07-29T01:38:35;94013.41;;;19.96;56.59
30935;BME280;51033;42.648;23.292;2022-07-29T01:41:09;94015.75;;;19.97;57.26
30935;BME280;51033;42.648;23.292;2022-07-29T01:43:44;94026.59;;;20.01;57.64
30935;BME280;51033;42.648;23.292;2022-07-29T01:46:14;94039.94;;;20.16;57.25
30935;BME280;51033;42.648;23.292;2022-07-29T01:48:47;94037.69;;;20.22;57.41
30935;BME280;51033;42.648;23.292;2022-07-29T01:51:19;94033.09;;;20.26;57.46
30935;BME280;51033;42.648;23.292;2022-07-29T01:54:08;94022.66;;;20.25;57.32
30935;BME280;51033;42.648;23.292;2022-07-29T01:56:37;94030.41;;;20.26;57.18
30935;BME280;51033;42.648;23.292;2022-07-29T01:59:05;94030.75;;;20.25;57.25
30935;BME280;51033;42.648;23.292;2022-07-29T02:01:33;94003.09;;;20.05;57.64
30935;BME280;51033;42.648;23.292;2022-07-29T02:04:03;94026.38;;;20.13;57.77
30935;BME280;51033;42.648;23.292;2022-07-29T02:06:32;93977.31;;;19.74;58.04
30935;BME280;51033;42.648;23.292;2022-07-29T02:08:58;94032.16;;;20.15;57.98
30935;BME280;51033;42.648;23.292;2022-07-29T02:11:25;93970.41;;;19.80;57.90
30935;BME280;51033;42.648;23.292;2022-07-29T02:13:52;94010.53;;;20.11;58.03
30935;BME280;51033;42.648;23.292;2022-07-29T02:16:20;94015.63;;;20.16;58.29
30935;BME280;51033;42.648;23.292;2022-07-29T02:18:48;94010.16;;;20.13;58.31
30935;BME280;51033;42.648;23.292;2022-07-29T02:21:18;94010.66;;;20.19;58.05
30935;BME280;51033;42.648;23.292;2022-07-29T02:23:46;93995.19;;;20.19;57.90
30935;BME280;51033;42.648;23.292;2022-07-29T02:26:13;93992.31;;;20.05;58.27
30935;BME280;51033;42.648;23.292;2022-07-29T02:28:40;93996.75;;;20.20;58.15
30935;BME280;51033;42.648;23.292;2022-07-29T02:31:07;94006.50;;;20.28;58.27
30935;BME280;51033;42.648;23.292;2022-07-29T02:33:33;94009.28;;;20.35;58.20
30935;BME280;51033;42.648;23.292;2022-07-29T02:36:00;93991.09;;;20.29;58.30
30935;BME280;51033;42.648;23.292;2022-07-29T02:38:28;93995.03;;;20.38;58.47
30935;BME280;51033;42.648;23.292;2022-07-29T02:41:17;93989.66;;;20.38;58.33
30935;BME280;51033;42.648;23.292;2022-07-29T02:43:47;93965.16;;;20.24;58.06
30935;BME280;51033;42.648;23.292;2022-07-29T02:46:17;93972.22;;;20.32;58.12
30935;BME280;51033;42.648;23.292;2022-07-29T02:48:51;93961.00;;;20.30;58.11
30935;BME280;51033;42.648;23.292;2022-07-29T02:51:27;93978.56;;;20.50;57.87
30935;BME280;51033;42.648;23.292;2022-07-29T02:53:56;93960.75;;;20.42;57.38
30935;BME280;51033;42.648;23.292;2022-07-29T02:56:25;93967.28;;;20.41;57.27
30935;BME280;51033;42.648;23.292;2022-07-29T02:58:58;93946.22;;;20.21;57.88
30935;BME280;51033;42.648;23.292;2022-07-29T03:01:30;93976.53;;;20.40;57.46
30935;BME280;51033;42.648;23.292;2022-07-29T03:04:00;93991.16;;;20.39;57.49
30935;BME280;51033;42.648;23.292;2022-07-29T03:06:26;93982.22;;;20.28;57.63
30935;BME280;51033;42.648;23.292;2022-07-29T03:13:55;93996.44;;;20.25;58.16
30935;BME280;51033;42.648;23.292;2022-07-29T03:16:21;93863.41;;;19.28;58.51
30935;BME280;51033;42.648;23.292;2022-07-29T03:18:48;94007.47;;;20.13;58.37
30935;BME280;51033;42.648;23.292;2022-07-29T03:21:15;94000.09;;;20.10;58.55
30935;BME280;51033;42.648;23.292;2022-07-29T03:23:43;94001.13;;;19.98;58.97
30935;BME280;51033;42.648;23.292;2022-07-29T03:26:13;94004.66;;;19.46;61.13
30935;BME280;51033;42.648;23.292;2022-07-29T03:28:39;93986.81;;;19.38;61.30
30935;BME280;51033;42.648;23.292;2022-07-29T03:31:04;93948.91;;;19.27;60.82
30935;BME280;51033;42.648;23.292;2022-07-29T03:33:30;93997.19;;;19.62;60.60
30935;BME280;51033;42.648;23.292;2022-07-29T03:35:56;93995.41;;;19.73;60.14
30935;BME280;51033;42.648;23.292;2022-07-29T03:38:24;94005.19;;;19.85;59.49
30935;BME280;51033;42.648;23.292;2022-07-29T03:40:54;93990.94;;;19.85;59.28
30935;BME280;51033;42.648;23.292;2022-07-29T03:43:20;94011.13;;;19.98;59.37
30935;BME280;51033;42.648;23.292;2022-07-29T03:45:50;94010.38;;;20.01;59.46
30935;BME280;51033;42.648;23.292;2022-07-29T03:48:20;94022.00;;;20.05;59.27
30935;BME280;51033;42.648;23.292;2022-07-29T03:50:46;93986.69;;;19.84;59.20
30935;BME280;51033;42.648;23.292;2022-07-29T03:53:12;94005.78;;;20.01;58.94
30935;BME280;51033;42.648;23.292;2022-07-29T03:55:42;94011.28;;;20.08;58.77
30935;BME280;51033;42.648;23.292;2022-07-29T03:58:09;94014.75;;;20.09;59.24
30935;BME280;51033;42.648;23.292;2022-07-29T04:00:36;93990.66;;;19.93;59.03
30935;BME280;51033;42.648;23.292;2022-07-29T04:03:03;94021.69;;;20.10;59.05
30935;BME280;51033;42.648;23.292;2022-07-29T04:05:29;93992.97;;;19.95;59.02
30935;BME280;51033;42.648;23.292;2022-07-29T04:07:54;94025.59;;;20.12;58.95
30935;BME280;51033;42.648;23.292;2022-07-29T04:10:20;94008.19;;;20.10;59.21
30935;BME280;51033;42.648;23.292;2022-07-29T04:12:45;94028.84;;;20.25;59.33
30935;BME280;51033;42.648;23.292;2022-07-29T04:15:12;94016.91;;;20.26;58.55
30935;BME280;51033;42.648;23.292;2022-07-29T04:17:38;94018.13;;;20.32;58.99
30935;BME280;51033;42.648;23.292;2022-07-29T04:20:04;94020.88;;;20.39;59.67
30935;BME280;51033;42.648;23.292;2022-07-29T04:22:29;94007.03;;;20.41;59.47
30935;BME280;51033;42.648;23.292;2022-07-29T04:24:55;93992.41;;;20.45;58.75
30935;BME280;51033;42.648;23.292;2022-07-29T04:27:20;93998.69;;;20.56;58.64
30935;BME280;51033;42.648;23.292;2022-07-29T04:29:46;94016.38;;;20.50;57.76
30935;BME280;51033;42.648;23.292;2022-07-29T04:32:12;94018.78;;;20.59;58.47
30935;BME280;51033;42.648;23.292;2022-07-29T04:34:38;94011.78;;;20.54;57.80
30935;BME280;51033;42.648;23.292;2022-07-29T04:37:03;94022.00;;;20.05;59.44
30935;BME280;51033;42.648;23.292;2022-07-29T04:39:28;93980.03;;;19.78;59.46
30935;BME280;51033;42.648;23.292;2022-07-29T04:41:54;94005.75;;;19.98;59.73
30935;BME280;51033;42.648;23.292;2022-07-29T04:44:19;94012.09;;;19.83;60.47
30935;BME280;51033;42.648;23.292;2022-07-29T04:46:45;94018.56;;;19.74;60.81
30935;BME280;51033;42.648;23.292;2022-07-29T04:49:10;94018.69;;;19.85;60.40
30935;BME280;51033;42.648;23.292;2022-07-29T04:51:35;94016.38;;;19.84;60.38
30935;BME280;51033;42.648;23.292;2022-07-29T04:54:02;94026.06;;;19.88;60.35
30935;BME280;51033;42.648;23.292;2022-07-29T04:56:27;93966.91;;;19.76;60.10
30935;BME280;51033;42.648;23.292;2022-07-29T04:58:53;93983.88;;;19.77;59.72
30935;BME280;51033;42.648;23.292;2022-07-29T05:01:18;94047.72;;;20.22;59.82
30935;BME280;51033;42.648;23.292;2022-07-29T05:03:44;94025.56;;;20.42;59.75
30935;BME280;51033;42.648;23.292;2022-07-29T05:06:10;94041.81;;;20.46;58.60
30935;BME280;51033;42.648;23.292;2022-07-29T05:08:36;94045.91;;;20.70;57.45
30935;BME280;51033;42.648;23.292;2022-07-29T05:11:01;94037.13;;;20.80;57.87
30935;BME280;51033;42.648;23.292;2022-07-29T05:13:27;94048.63;;;21.10;57.57
30935;BME280;51033;42.648;23.292;2022-07-29T05:15:53;94039.38;;;21.11;56.85
30935;BME280;51033;42.648;23.292;2022-07-29T05:18:18;94052.44;;;21.02;56.61
30935;BME280;51033;42.648;23.292;2022-07-29T05:20:43;94041.69;;;21.13;56.71
30935;BME280;51033;42.648;23.292;2022-07-29T05:23:09;94032.16;;;21.29;56.27
30935;BME280;51033;42.648;23.292;2022-07-29T05:25:38;94033.41;;;21.42;55.92
30935;BME280;51033;42.648;23.292;2022-07-29T05:28:03;94035.00;;;21.47;55.61
30935;BME280;51033;42.648;23.292;2022-07-29T05:30:29;94051.84;;;21.77;55.01
30935;BME280;51033;42.648;23.292;2022-07-29T05:32:54;94015.84;;;21.70;54.74
30935;BME280;51033;42.648;23.292;2022-07-29T05:35:19;94025.97;;;21.87;54.28
30935;BME280;51033;42.648;23.292;2022-07-29T05:37:45;94039.59;;;22.01;53.64
30935;BME280;51033;42.648;23.292;2022-07-29T05:40:10;94045.84;;;22.12;53.38
30935;BME280;51033;42.648;23.292;2022-07-29T05:42:36;94032.22;;;21.98;53.03
30935;BME280;51033;42.648;23.292;2022-07-29T05:45:04;94048.53;;;22.12;52.88
30935;BME280;51033;42.648;23.292;2022-07-29T05:47:30;94057.88;;;22.18;52.49
30935;BME280;51033;42.648;23.292;2022-07-29T05:49:55;94055.97;;;22.26;52.78
30935;BME280;51033;42.648;23.292;2022-07-29T05:52:21;94048.63;;;22.26;52.40
30935;BME280;51033;42.648;23.292;2022-07-29T05:54:47;94043.63;;;22.28;53.00
30935;BME280;51033;42.648;23.292;2022-07-29T05:57:19;94057.97;;;22.40;53.13
30935;BME280;51033;42.648;23.292;2022-07-29T05:59:46;94051.81;;;22.50;53.03
30935;BME280;51033;42.648;23.292;2022-07-29T06:02:13;94061.16;;;22.66;52.92
30935;BME280;51033;42.648;23.292;2022-07-29T06:04:38;94051.50;;;22.72;52.75
30935;BME280;51033;42.648;23.292;2022-07-29T06:07:04;94060.41;;;22.77;52.43
30935;BME280;51033;42.648;23.292;2022-07-29T06:09:30;94048.78;;;22.83;51.94
30935;BME280;51033;42.648;23.292;2022-07-29T06:11:55;94055.00;;;22.73;51.83
30935;BME280;51033;42.648;23.292;2022-07-29T06:14:21;94050.34;;;22.77;52.13
30935;BME280;51033;42.648;23.292;2022-07-29T06:16:46;94060.47;;;23.01;51.84
30935;BME280;51033;42.648;23.292;2022-07-29T06:19:12;94062.03;;;23.09;51.37
30935;BME280;51033;42.648;23.292;2022-07-29T06:21:44;94054.28;;;23.15;51.17
30935;BME280;51033;42.648;23.292;2022-07-29T06:24:11;94062.81;;;23.35;51.16
30935;BME280;51033;42.648;23.292;2022-07-29T06:26:38;94044.97;;;23.37;50.26
30935;BME280;51033;42.648;23.292;2022-07-29T06:29:04;94049.22;;;23.42;49.56
30935;BME280;51033;42.648;23.292;2022-07-29T06:31:29;94053.53;;;23.50;50.09
30935;BME280;51033;42.648;23.292;2022-07-29T06:33:55;94046.94;;;23.54;50.14
30935;BME280;51033;42.648;23.292;2022-07-29T06:36:20;94051.59;;;23.57;49.34
30935;BME280;51033;42.648;23.292;2022-07-29T06:38:45;94039.94;;;23.43;50.48
30935;BME280;51033;42.648;23.292;2022-07-29T06:41:12;94047.72;;;23.58;49.78
30935;BME280;51033;42.648;23.292;2022-07-29T06:43:42;94052.75;;;23.64;49.92
30935;BME280;51033;42.648;23.292;2022-07-29T06:46:13;94049.25;;;23.70;49.11
30935;BME280;51033;42.648;23.292;2022-07-29T06:48:40;94053.91;;;23.73;48.83
30935;BME280;51033;42.648;23.292;2022-07-29T06:51:07;94043.44;;;23.75;49.18
30935;BME280;51033;42.648;23.292;2022-07-29T06:53:33;94051.13;;;23.91;49.07
30935;BME280;51033;42.648;23.292;2022-07-29T06:56:00;94049.59;;;23.93;49.15
30935;BME280;51033;42.648;23.292;2022-07-29T06:58:26;94044.53;;;23.95;48.03
30935;BME280;51033;42.648;23.292;2022-07-29T07:00:52;94032.53;;;23.89;47.62
30935;BME280;51033;42.648;23.292;2022-07-29T07:03:18;94039.50;;;23.94;47.88
30935;BME280;51033;42.648;23.292;2022-07-29T07:05:44;94044.50;;;24.02;47.11
30935;BME280;51033;42.648;23.292;2022-07-29T07:08:11;94041.41;;;23.97;47.70
30935;BME280;51033;42.648;23.292;2022-07-29T07:10:38;94036.00;;;23.86;48.91
30935;BME280;51033;42.648;23.292;2022-07-29T07:13:04;94052.31;;;23.93;48.76
30935;BME280;51033;42.648;23.292;2022-07-29T07:15:29;94022.47;;;23.79;48.98
30935;BME280;51033;42.648;23.292;2022-07-29T07:17:55;94033.28;;;23.93;48.78
30935;BME280;51033;42.648;23.292;2022-07-29T07:20:20;94020.50;;;23.90;48.34
30935;BME280;51033;42.648;23.292;2022-07-29T07:22:46;94049.59;;;23.93;48.30
30935;BME280;51033;42.648;23.292;2022-07-29T07:25:12;94044.16;;;23.86;49.74
30935;BME280;51033;42.648;23.292;2022-07-29T07:27:38;94044.16;;;23.83;48.27
30935;BME280;51033;42.648;23.292;2022-07-29T07:30:05;94028.69;;;23.80;49.85
30935;BME280;51033;42.648;23.292;2022-07-29T07:32:31;93971.69;;;23.48;48.35
30935;BME280;51033;42.648;23.292;2022-07-29T07:34:57;94009.69;;;23.62;48.38
30935;BME280;51033;42.648;23.292;2022-07-29T07:37:22;93888.81;;;22.83;47.99
30935;BME280;51033;42.648;23.292;2022-07-29T07:39:50;94023.28;;;23.66;48.98
30935;BME280;51033;42.648;23.292;2022-07-29T07:42:15;94035.63;;;23.81;48.27
30935;BME280;51033;42.648;23.292;2022-07-29T07:44:40;94032.94;;;23.84;48.37
30935;BME280;51033;42.648;23.292;2022-07-29T07:47:06;94035.59;;;23.91;49.06
30935;BME280;51033;42.648;23.292;2022-07-29T07:49:31;94042.19;;;23.97;48.29
30935;BME280;51033;42.648;23.292;2022-07-29T07:51:57;94027.06;;;23.96;48.33
30935;BME280;51033;42.648;23.292;2022-07-29T07:54:22;94048.38;;;24.09;47.53
30935;BME280;51033;42.648;23.292;2022-07-29T07:56:48;94020.09;;;23.99;47.38
30935;BME280;51033;42.648;23.292;2022-07-29T07:59:16;94041.38;;;24.18;47.21
30935;BME280;51033;42.648;23.292;2022-07-29T08:01:42;94019.66;;;24.18;47.38
30935;BME280;51033;42.648;23.292;2022-07-29T08:04:07;94018.50;;;24.19;46.99
30935;BME280;51033;42.648;23.292;2022-07-29T08:06:33;94015.75;;;24.23;46.00
30935;BME280;51033;42.648;23.292;2022-07-29T08:09:00;94013.03;;;24.23;46.29
30935;BME280;51033;42.648;23.292;2022-07-29T08:11:25;94035.47;;;24.41;45.55
30935;BME280;51033;42.648;23.292;2022-07-29T08:13:51;94026.56;;;24.37;45.62
30935;BME280;51033;42.648;23.292;2022-07-29T08:16:17;94028.47;;;24.40;45.40
30935;BME280;51033;42.648;23.292;2022-07-29T08:18:44;94043.19;;;24.50;45.89
30935;BME280;51033;42.648;23.292;2022-07-29T08:21:10;94026.13;;;24.49;45.13
30935;BME280;51033;42.648;23.292;2022-07-29T08:23:36;94031.91;;;24.51;44.99
30935;BME280;51033;42.648;23.292;2022-07-29T08:26:08;94028.44;;;24.47;44.37
30935;BME280;51033;42.648;23.292;2022-07-29T08:28:37;94032.00;;;24.37;44.83
30935;BME280;51033;42.648;23.292;2022-07-29T08:31:02;94013.41;;;24.25;45.80
30935;BME280;51033;42.648;23.292;2022-07-29T08:33:28;94023.84;;;24.30;45.28
30935;BME280;51033;42.648;23.292;2022-07-29T08:35:53;94039.34;;;24.43;44.69
30935;BME280;51033;42.648;23.292;2022-07-29T08:38:18;94041.66;;;24.45;45.28
30935;BME280;51033;42.648;23.292;2022-07-29T08:40:45;94032.31;;;24.53;45.30
30935;BME280;51033;42.648;23.292;2022-07-29T08:43:12;94037.31;;;24.62;45.30
30935;BME280;51033;42.648;23.292;2022-07-29T08:45:47;94032.63;;;24.73;44.83
30935;BME280;51033;42.648;23.292;2022-07-29T08:48:14;94017.47;;;24.68;44.40
30935;BME280;51033;42.648;23.292;2022-07-29T08:50:41;94031.44;;;24.77;43.42
30935;BME280;51033;42.648;23.292;2022-07-29T08:53:11;94037.63;;;24.74;44.33
30935;BME280;51033;42.648;23.292;2022-07-29T08:55:42;94032.19;;;24.74;43.80
30935;BME280;51033;42.648;23.292;2022-07-29T08:58:08;94000.38;;;24.64;44.06
30935;BME280;51033;42.648;23.292;2022-07-29T09:00:35;94010.44;;;24.78;43.32
30935;BME280;51033;42.648;23.292;2022-07-29T09:03:03;94030.53;;;24.95;45.01
30935;BME280;51033;42.648;23.292;2022-07-29T09:05:29;94008.41;;;24.93;44.49
30935;BME280;51033;42.648;23.292;2022-07-29T09:07:56;94029.22;;;25.13;42.90
30935;BME280;51033;42.648;23.292;2022-07-29T09:10:22;94007.56;;;25.03;43.37
30935;BME280;51033;42.648;23.292;2022-07-29T09:12:48;94012.50;;;25.15;44.31
30935;BME280;51033;42.648;23.292;2022-07-29T09:15:14;94012.78;;;25.27;43.26
30935;BME280;51033;42.648;23.292;2022-07-29T09:17:48;94025.19;;;25.36;42.03
30935;BME280;51033;42.648;23.292;2022-07-29T09:20:17;94017.81;;;25.33;41.71
30935;BME280;51033;42.648;23.292;2022-07-29T09:22:42;94007.72;;;25.29;42.57
30935;BME280;51033;42.648;23.292;2022-07-29T09:25:12;94018.47;;;25.47;43.24
30935;BME280;51033;42.648;23.292;2022-07-29T09:27:38;94009.84;;;25.56;42.82
30935;BME280;51033;42.648;23.292;2022-07-29T09:30:06;93996.72;;;25.44;42.12
30935;BME280;51033;42.648;23.292;2022-07-29T09:32:58;94014.13;;;25.53;43.84
30935;BME280;51033;42.648;23.292;2022-07-29T09:35:27;94011.34;;;25.60;43.25
30935;BME280;51033;42.648;23.292;2022-07-29T09:37:53;94001.56;;;25.66;42.23
30935;BME280;51033;42.648;23.292;2022-07-29T09:40:21;94008.00;;;25.83;41.47
30935;BME280;51033;42.648;23.292;2022-07-29T09:42:48;94008.75;;;25.91;42.64
30935;BME280;51033;42.648;23.292;2022-07-29T09:45:26;94010.97;;;25.99;41.09
30935;BME280;51033;42.648;23.292;2022-07-29T09:47:52;93958.34;;;25.68;42.21
30935;BME280;51033;42.648;23.292;2022-07-29T09:50:17;94018.44;;;25.95;42.74
30935;BME280;51033;42.648;23.292;2022-07-29T09:52:52;93992.34;;;25.94;41.99
30935;BME280;51033;42.648;23.292;2022-07-29T09:55:18;94006.94;;;26.11;41.83
30935;BME280;51033;42.648;23.292;2022-07-29T09:57:45;94004.97;;;26.15;42.17
30935;BME280;51033;42.648;23.292;2022-07-29T10:00:13;93995.13;;;26.21;41.46
30935;BME280;51033;42.648;23.292;2022-07-29T10:02:41;94009.88;;;26.27;41.62
30935;BME280;51033;42.648;23.292;2022-07-29T10:05:23;93997.38;;;26.30;43.69
30935;BME280;51033;42.648;23.292;2022-07-29T10:07:55;93996.25;;;26.27;43.14
30935;BME280;51033;42.648;23.292;2022-07-29T10:10:22;93995.78;;;26.32;42.03
30935;BME280;51033;42.648;23.292;2022-07-29T10:13:11;93975.59;;;26.26;43.27
30935;BME280;51033;42.648;23.292;2022-07-29T10:15:39;93956.34;;;26.10;43.94
30935;BME280;51033;42.648;23.292;2022-07-29T10:18:07;93984.44;;;26.37;41.93
30935;BME280;51033;42.648;23.292;2022-07-29T10:20:33;93953.72;;;26.33;41.37
30935;BME280;51033;42.648;23.292;2022-07-29T10:22:58;93965.34;;;26.37;41.59
30935;BME280;51033;42.648;23.292;2022-07-29T10:25:24;93973.81;;;26.46;42.85
30935;BME280;51033;42.648;23.292;2022-07-29T10:27:51;93955.94;;;26.42;42.78
30935;BME280;51033;42.648;23.292;2022-07-29T10:30:17;93962.66;;;26.64;40.91
30935;BME280;51033;42.648;23.292;2022-07-29T10:36:07;93963.25;;;26.75;39.67
30935;BME280;51033;42.648;23.292;2022-07-29T10:41:46;93963.56;;;26.81;39.62
30935;BME280;51033;42.648;23.292;2022-07-29T10:44:18;93940.41;;;26.66;39.52
30935;BME280;51033;42.648;23.292;2022-07-29T10:46:44;93953.97;;;26.73;39.84
30935;BME280;51033;42.648;23.292;2022-07-29T10:49:18;93943.59;;;26.61;42.52
30935;BME280;51033;42.648;23.292;2022-07-29T10:59:41;93932.72;;;26.84;39.79
30935;BME280;51033;42.648;23.292;2022-07-29T11:07:23;93942.16;;;27.06;39.88
30935;BME280;51033;42.648;23.292;2022-07-29T11:10:19;93937.22;;;26.97;41.29
30935;BME280;51033;42.648;23.292;2022-07-29T11:12:46;93940.97;;;27.07;39.98
30935;BME280;51033;42.648;23.292;2022-07-29T11:15:14;93927.66;;;27.09;38.23
30935;BME280;51033;42.648;23.292;2022-07-29T11:20:40;93932.41;;;27.05;41.53
30935;BME280;51033;42.648;23.292;2022-07-29T11:23:30;93922.66;;;27.08;39.57
30935;BME280;51033;42.648;23.292;2022-07-29T11:26:20;93908.84;;;27.15;41.08
30935;BME280;51033;42.648;23.292;2022-07-29T11:31:31;93913.72;;;27.27;38.80
30935;BME280;51033;42.648;23.292;2022-07-29T11:45:05;93914.16;;;27.68;37.36
30935;BME280;51033;42.648;23.292;2022-07-29T11:47:32;93907.91;;;27.68;37.23
30935;BME280;51033;42.648;23.292;2022-07-29T11:49:59;93912.06;;;27.76;37.47
30935;BME280;51033;42.648;23.292;2022-07-29T11:52:36;93908.06;;;27.80;37.19
30935;BME280;51033;42.648;23.292;2022-07-29T11:55:09;93899.09;;;27.80;37.76
30935;BME280;51033;42.648;23.292;2022-07-29T11:57:34;93892.97;;;27.72;39.28
30935;BME280;51033;42.648;23.292;2022-07-29T12:00:01;93905.38;;;27.77;35.76
30935;BME280;51033;42.648;23.292;2022-07-29T12:02:43;93902.16;;;27.82;38.22
30935;BME280;51033;42.648;23.292;2022-07-29T12:05:09;93899.72;;;27.88;35.28
30935;BME280;51033;42.648;23.292;2022-07-29T12:07:38;93854.97;;;27.62;36.09
30935;BME280;51033;42.648;23.292;2022-07-29T12:10:06;93883.25;;;27.91;37.36
30935;BME280;51033;42.648;23.292;2022-07-29T12:12:32;93891.66;;;28.00;39.64
30935;BME280;51033;42.648;23.292;2022-07-29T12:14:58;93876.16;;;27.94;40.26
30935;BME280;51033;42.648;23.292;2022-07-29T12:17:28;93876.63;;;28.08;39.38
30935;BME280;51033;42.648;23.292;2022-07-29T12:19:54;93902.00;;;28.29;36.91
30935;BME280;51033;42.648;23.292;2022-07-29T12:22:40;93895.34;;;28.30;37.45
30935;BME280;51033;42.648;23.292;2022-07-29T12:25:13;93909.63;;;28.37;38.78
30935;BME280;51033;42.648;23.292;2022-07-29T12:27:40;93907.25;;;28.39;34.64
30935;BME280;51033;42.648;23.292;2022-07-29T12:30:15;93899.47;;;28.38;33.94
30935;BME280;51033;42.648;23.292;2022-07-29T12:32:44;93900.63;;;28.20;36.57
30935;BME280;51033;42.648;23.292;2022-07-29T12:35:19;93887.28;;;28.22;37.14
30935;BME280;51033;42.648;23.292;2022-07-29T12:37:47;93893.91;;;28.41;35.34
30935;BME280;51033;42.648;23.292;2022-07-29T12:40:15;93883.22;;;28.47;36.12
30935;BME280;51033;42.648;23.292;2022-07-29T12:43:05;93897.44;;;28.58;35.38
30935;BME280;51033;42.648;23.292;2022-07-29T12:45:31;93880.16;;;28.45;36.38
30935;BME280;51033;42.648;23.292;2022-07-29T12:47:56;93886.50;;;28.58;33.45
30935;BME280;51033;42.648;23.292;2022-07-29T12:50:22;93882.09;;;28.64;33.37
30935;BME280;51033;42.648;23.292;2022-07-29T12:52:48;93875.84;;;28.63;34.14
30935;BME280;51033;42.648;23.292;2022-07-29T12:55:13;93883.09;;;28.70;35.05
30935;BME280;51033;42.648;23.292;2022-07-29T12:57:49;93870.63;;;28.69;34.23
30935;BME280;51033;42.648;23.292;2022-07-29T13:00:22;93879.16;;;28.71;36.61
30935;BME280;51033;42.648;23.292;2022-07-29T13:02:57;93864.44;;;28.65;35.22
30935;BME280;51033;42.648;23.292;2022-07-29T13:05:23;93861.22;;;28.70;37.06
30935;BME280;51033;42.648;23.292;2022-07-29T13:07:50;93867.53;;;28.67;35.39
30935;BME280;51033;42.648;23.292;2022-07-29T13:10:20;93868.06;;;28.78;33.94
30935;BME280;51033;42.648;23.292;2022-07-29T13:13:21;93862.44;;;28.69;36.95
30935;BME280;51033;42.648;23.292;2022-07-29T13:16:05;93845.66;;;28.67;35.20
30935;BME280;51033;42.648;23.292;2022-07-29T13:18:34;93854.91;;;28.73;36.50
30935;BME280;51033;42.648;23.292;2022-07-29T13:21:14;93846.50;;;28.80;35.78
30935;BME280;51033;42.648;23.292;2022-07-29T13:23:40;93855.72;;;29.02;34.00
30935;BME280;51033;42.648;23.292;2022-07-29T13:26:10;93848.84;;;29.10;34.47
30935;BME280;51033;42.648;23.292;2022-07-29T13:28:39;93847.50;;;29.19;34.04
30935;BME280;51033;42.648;23.292;2022-07-29T13:31:05;93828.81;;;29.14;34.14
30935;BME280;51033;42.648;23.292;2022-07-29T13:33:30;93845.09;;;29.21;35.01
30935;BME280;51033;42.648;23.292;2022-07-29T13:35:56;93845.59;;;29.32;34.55
30935;BME280;51033;42.648;23.292;2022-07-29T13:38:21;93832.84;;;29.25;33.01
30935;BME280;51033;42.648;23.292;2022-07-29T13:40:47;93830.72;;;29.33;33.55
30935;BME280;51033;42.648;23.292;2022-07-29T13:43:13;93846.78;;;29.31;34.66
30935;BME280;51033;42.648;23.292;2022-07-29T13:45:39;93829.16;;;29.32;33.06
30935;BME280;51033;42.648;23.292;2022-07-29T13:48:05;93833.91;;;29.44;32.35
30935;BME280;51033;42.648;23.292;2022-07-29T13:50:31;93829.63;;;29.43;35.83